Flight Track Log - Related Links

Times and Time Zones

All times are in EDT time to prevent confusion due to time zone crossing. See the UAL3598 flight status page for this flight to view local times or setup timezone preferences in your user account.

Time Position Orientation Groundspeed Altitude Reporting Facility
EDT Latitude Longitude Course Direction KTS MPH feet Rate Location/Type
Mon 11:31:00 PM 40.6833 -74.1833 323° Northwest 102 117 400  Level New York TRACON
Mon 11:32:00 PM 40.6500 -74.1833 180° South 134 154 1,900 1,421 Climbing New York TRACON
Mon 11:32:54 PM 40.6333 -74.2333 246° West 157 181 3,100 1,421 Climbing New York TRACON
Mon 11:33:54 PM 40.6500 -74.2833 294° West 172 198 4,600 1,429 Climbing New York TRACON
Mon 11:35:00 PM 40.7000 -74.3167 333° Northwest 167 192 6,100 1,277 Climbing New York TRACON
Mon 11:36:00 PM 40.8927 -74.4094 323° Northwest  Level FlightAware Approximate
Mon 11:37:02 PM 40.7750 -74.3881 324° Northwest 180 207 8,600  Level New York Center
Mon 11:38:02 PM 40.8217 -74.4264 328° Northwest 185 213 10,300 1,200 Climbing New York Center
Mon 11:39:02 PM 40.8622 -74.4614 327° Northwest 185 213 11,000 750 Climbing New York Center
Mon 11:40:02 PM 40.9192 -74.5083 328° Northwest 200 230 11,800 500 Climbing New York Center
Mon 11:41:02 PM 40.9678 -74.5497 327° Northwest 218 251 12,000 50 Climbing New York Center
Mon 11:42:02 PM 41.0306 -74.6053 326° Northwest 239 275 11,900 -50 Descending New York Center
Mon 11:43:02 PM 41.0833 -74.6497 328° Northwest 251 289 11,900 50 Level New York Center
Mon 11:44:02 PM 41.1439 -74.7083 324° Northwest 251 289 12,000 50 Climbing New York Center
Mon 11:45:02 PM 41.1728 -74.7733 301° West 235 270 12,000  Level New York Center
Mon 11:46:02 PM 41.2036 -74.8497 298° West 220 253 12,000 300 Level New York Center
Mon 11:47:02 PM 41.2478 -74.8964 322° Northwest 220 253 12,600 700 Climbing New York Center
Mon 11:48:02 PM 41.3039 -74.9578 321° Northwest 227 261 13,400 650 Climbing New York Center
Mon 11:49:02 PM 41.3481 -75.0047 321° Northwest 227 261 13,900 300 Climbing New York Center
Mon 11:50:02 PM 41.3961 -75.0603 319° Northwest 227 261 14,000 50 Climbing New York Center
Mon 11:51:02 PM 41.4522 -75.1222 320° Northwest 227 261 14,000  Level New York Center
Mon 11:52:02 PM 41.5042 -75.1781 321° Northwest 233 268 14,000  Level New York Center
Mon 11:53:02 PM 41.5542 -75.2367 319° Northwest 233 268 14,000  Level New York Center
Mon 11:54:04 PM 41.6000 -75.2869 321° Northwest 233 268 14,000  Level New York Center
Mon 11:55:02 PM 41.6561 -75.3492 320° Northwest 233 268 14,000  Level New York Center
Mon 11:56:02 PM 41.7058 -75.4081 319° Northwest 233 268 14,000 -350 Level New York Center
Mon 11:57:02 PM 41.7575 -75.4672 320° Northwest 233 268 13,300 -900 Descending New York Center
Mon 11:58:02 PM 41.8075 -75.5236 320° Northwest 253 291 12,200 -1,150 Descending New York Center
Mon 11:59:02 PM 41.8611 -75.5861 319° Northwest 253 291 11,000 -1,250 Descending New York Center
Tue 12:00:02 AM 41.9208 -75.6544 320° Northwest 253 291 9,700 -1,000 Descending New York Center
Tue 12:01:02 AM 41.9794 -75.6950 333° Northwest 245 282 9,000 -700 Descending New York Center
Tue 12:02:02 AM 42.0400 -75.6911 North 221 254 8,300 -850 Descending New York Center
Tue 12:03:02 AM 42.0983 -75.6928 359° North 221 254 7,300 -1,100 Descending New York Center
Tue 12:04:02 AM 42.1644 -75.7033 353° North 221 254 6,100 -650 Descending New York Center
Tue 12:05:02 AM 42.2217 -75.7272 343° North 221 254 6,000 -50 Descending New York Center
Tue 12:06:02 AM 42.2647 -75.7947 311° West 216 249 6,000 -500 Level New York Center
Tue 12:07:02 AM 42.2828 -75.8606 290° West 203 234 5,000 -850 Descending New York Center
Tue 12:08:02 AM 42.2842 -75.9197 272° West 176 203 4,300 -950 Descending New York Center
Tue 12:09:02 AM 42.2669 -75.9828 250° West 165 190 3,100 -1,100 Descending New York Center
Tue 12:10:02 AM 42.2328 -76.0053 206° Southwest 156 180 2,100 -600 Descending New York Center
Tue 12:11:02 AM 42.2022 -76.0364 217° Southwest 126 145 1,900 450 Descending New York Center
Tue 12:12:02 AM 42.1756 -76.0706 224° Southwest 126 145 3,000 1,100 Climbing New York Center

Login

Don't have an account? Register now (free) for customized features, flight alerts, and more!